MMHO/HMO METAR and TAF weather

Enter ICAO airport designator
Station Type Date Time Source
MMHO METAR 2022/12/04 05:40 UTC NOAA

MMHO 040540Z 00000KT 10SM SCT200 18/11 A3006 RMK SLP178 52006 954 8/008 HZY ISOL AC


Station Type Date Time Source
MMHO Decoded METAR 2022/12/04 05:40 UTC NOAA

Hermosillo, Son., Mexico (MMHO) 29-04N 110-57W
Dec 04, 2022 - 12:40 AM EST / 2022.12.04 0540 UTC
Wind: Calm:0
Visibility: 10 mile(s):0
Sky conditions: partly cloudy
Temperature: 64 F (18 C)
Dew Point: 51 F (11 C)
Relative Humidity: 63%
Pressure (altimeter): 30.06 in. Hg (1017 hPa)
Pressure tendency: 0.02 inches (0.6 hPa) higher than three hours ago
ob: MMHO 040540Z 00000KT 10SM SCT200 18/11 A3006 RMK SLP178 52006 954 8/008 HZY ISOL AC
cycle: 5

Station Type Date Time Source
MMHO TAF 2022/12/04 06:35 UTC NOAA

TAF MMHO 040328Z 0406/0506 00000KT P6SM SCT090
FM041800 23010KT P6SM BKN100 BKN250
FM050500 00000KT P6SM SKC

Example: see airport list